To NAV CANADA Home Page Login to a new session Search on AWWS site Feedback and Comments Disclaimer Vers la page française équivalente Tips FAQ What's new on the site To the Forecasts and Observations / NOTAM section To "File a Flight Plan" website Publications and other links Update of the User's profile FIC Telephone Numbers My Weather Data Folder Route Weather Data Regional Weather Data Local Weather Data To the Forecasts and Observations / NOTAM section
Request Generated 09/30/2016 at 16:50:20 UTC . Weather information available at that time is displayed.

METAR/TAF

WINNIPEG/JAMES ARMSTRONG RICHARDSON INTL/MB    

METAR CYWG 301600Z 17011G16KT 15SM FEW180 SCT250 15/10 A3030 RMK
AC1CI3 SLP268=
METAR CYWG 301500Z 16010G16KT 15SM FEW180 SCT250 12/09 A3031 RMK
AC2CI2 SLP271=
METAR CYWG 301400Z 16011G17KT 15SM FEW180 SCT250 10/08 A3031 RMK
AC1CI3 SLP273=

TAF CYWG 301138Z 3012/0112 16010KT P6SM SKC
FM301800 16015G25KT P6SM FEW020 SCT200
FM010300 16012KT P6SM BKN160
RMK NXT FCST BY 301800Z=
Your time UTC time
Weather data provided by Environment Canada and NAV CANADA